createdAt,value
2022-11-24T00:03:23.479Z,1813
2022-11-24T00:08:53.900Z,1802
2022-11-24T00:14:24.395Z,1837
2022-11-24T00:19:55.013Z,1827
2022-11-24T00:25:25.468Z,1807
2022-11-24T00:30:56.019Z,1658
2022-11-24T00:36:26.571Z,1603
2022-11-24T00:41:56.995Z,1581
2022-11-24T00:47:27.491Z,1530
2022-11-24T00:52:58.104Z,1502
2022-11-24T00:58:28.553Z,1416
2022-11-24T01:03:59.047Z,1343
2022-11-24T01:09:29.672Z,1327
2022-11-24T01:15:00.129Z,1285
2022-11-24T01:20:30.690Z,1269
2022-11-24T01:26:01.190Z,1238
2022-11-24T01:31:31.641Z,1219
2022-11-24T01:37:02.327Z,1184
2022-11-24T01:42:32.843Z,1157
2022-11-24T01:48:03.281Z,1119
2022-11-24T01:53:33.874Z,1094
2022-11-24T01:59:04.381Z,1059
2022-11-24T02:04:35.103Z,1030
2022-11-24T02:10:05.416Z,1017
2022-11-24T02:15:35.996Z,975
2022-11-24T02:21:05.372Z,952
2022-11-24T02:26:35.876Z,929
2022-11-24T02:32:06.384Z,916
2022-11-24T02:37:36.928Z,895
2022-11-24T02:43:07.399Z,880
2022-11-24T02:48:37.916Z,854
2022-11-24T02:54:08.506Z,849
2022-11-24T02:59:38.968Z,843
2022-11-24T03:05:09.460Z,830
2022-11-24T03:10:38.919Z,832
2022-11-24T03:16:09.539Z,824
2022-11-24T03:21:38.921Z,818
2022-11-24T03:27:09.406Z,816
2022-11-24T03:32:39.867Z,804
2022-11-24T03:38:09.377Z,789
2022-11-24T03:43:43.830Z,782
2022-11-24T03:49:10.424Z,781
2022-11-24T03:54:40.948Z,779
2022-11-24T04:00:11.393Z,773
2022-11-24T04:05:41.987Z,765
2022-11-24T04:11:12.494Z,757
2022-11-24T04:16:43.063Z,756
2022-11-24T04:22:13.541Z,762
2022-11-24T04:27:44.115Z,750
2022-11-24T04:33:13.573Z,745
2022-11-24T04:39:19.623Z,736
2022-11-24T04:44:14.708Z,740
2022-11-24T04:49:45.164Z,741
2022-11-24T04:55:15.657Z,750
2022-11-24T05:00:46.251Z,759
2022-11-24T05:06:16.692Z,761
2022-11-24T05:11:47.286Z,766
2022-11-24T05:17:17.922Z,766
2022-11-24T05:22:48.358Z,770
2022-11-24T05:28:18.802Z,778
2022-11-24T05:33:49.432Z,778
2022-11-24T05:39:19.877Z,782
2022-11-24T05:44:50.355Z,789
2022-11-24T05:50:20.983Z,796
2022-11-24T05:55:51.429Z,800
2022-11-24T06:01:21.936Z,801
2022-11-24T06:06:51.421Z,835
2022-11-24T06:12:21.904Z,785
2022-11-24T06:17:52.484Z,780
2022-11-24T06:23:23.024Z,754
2022-11-24T06:28:53.473Z,719
2022-11-24T06:34:24.078Z,709
2022-11-24T06:39:54.559Z,689
2022-11-24T06:45:25.139Z,676
2022-11-24T06:50:54.478Z,678
2022-11-24T06:56:25.000Z,683
2022-11-24T07:01:54.451Z,681
2022-11-24T07:07:24.999Z,691
2022-11-24T07:12:55.418Z,695
2022-11-24T07:18:25.992Z,697
2022-11-24T07:23:56.541Z,700
2022-11-24T07:29:27.040Z,707
2022-11-24T07:34:57.614Z,700
2022-11-24T07:40:28.163Z,704
2022-11-24T07:45:57.718Z,709
2022-11-24T07:51:28.081Z,711
2022-11-24T07:56:57.569Z,710
2022-11-24T08:02:28.054Z,720
2022-11-24T08:07:58.596Z,712
2022-11-24T08:13:28.018Z,711
2022-11-24T08:18:58.536Z,709
2022-11-24T08:24:28.972Z,701
2022-11-24T08:29:59.554Z,703
2022-11-24T08:35:30.096Z,702
2022-11-24T08:40:59.528Z,702
2022-11-24T08:46:30.141Z,716
2022-11-24T08:52:00.497Z,709
2022-11-24T08:57:31.081Z,710
2022-11-24T09:03:01.539Z,718
2022-11-24T09:08:32.173Z,723
2022-11-24T09:14:02.602Z,734
2022-11-24T09:19:33.533Z,737
2022-11-24T09:25:03.765Z,750
2022-11-24T09:30:34.306Z,757
2022-11-24T09:36:04.688Z,747
2022-11-24T09:41:35.336Z,737
2022-11-24T09:47:05.952Z,743
2022-11-24T09:52:36.485Z,733
2022-11-24T09:58:06.967Z,734
2022-11-24T10:03:37.424Z,736
2022-11-24T10:09:06.917Z,732
2022-11-24T10:14:37.431Z,733
2022-11-24T10:20:07.860Z,731
2022-11-24T10:25:37.382Z,726
2022-11-24T10:31:07.940Z,727
2022-11-24T10:36:38.408Z,731
2022-11-24T10:42:08.910Z,751
2022-11-24T10:47:39.407Z,767
2022-11-24T10:53:09.979Z,774
2022-11-24T10:58:40.452Z,780
2022-11-24T11:04:10.976Z,789
2022-11-24T11:09:41.516Z,790
2022-11-24T11:15:12.014Z,792
2022-11-24T11:20:42.632Z,800
2022-11-24T11:26:12.114Z,785
2022-11-24T11:31:43.057Z,779
2022-11-24T11:37:13.064Z,798
2022-11-24T11:43:01.971Z,805
2022-11-24T11:48:14.108Z,806
2022-11-24T11:53:44.811Z,813
2022-11-24T11:59:15.309Z,826
2022-11-24T12:04:45.784Z,835
2022-11-24T12:10:15.310Z,843
2022-11-24T12:15:45.819Z,845
2022-11-24T12:21:17.960Z,846
2022-11-24T12:26:46.873Z,836
2022-11-24T12:32:17.862Z,825
2022-11-24T12:37:47.873Z,822
2022-11-24T12:43:17.416Z,810
2022-11-24T12:48:47.852Z,799
2022-11-24T12:54:18.468Z,809
2022-11-24T12:59:48.982Z,804
2022-11-24T13:05:19.419Z,806
2022-11-24T13:10:58.017Z,790
2022-11-24T13:16:35.744Z,792
2022-11-24T13:21:51.119Z,789
2022-11-24T13:27:21.667Z,785
2022-11-24T13:32:52.177Z,787
2022-11-24T13:38:22.739Z,781
2022-11-24T13:43:53.213Z,731
2022-11-24T13:49:23.746Z,722
2022-11-24T13:54:54.272Z,735
2022-11-24T14:00:24.751Z,715
2022-11-24T14:05:55.274Z,714
2022-11-24T14:11:25.827Z,708
2022-11-24T14:16:56.394Z,687
2022-11-24T14:22:27.130Z,681
2022-11-24T14:27:57.539Z,688
2022-11-24T14:33:27.960Z,694
2022-11-24T14:38:58.561Z,692
2022-11-24T14:44:28.982Z,691
2022-11-24T14:49:59.572Z,708
2022-11-24T14:55:28.985Z,690
2022-11-24T15:00:59.539Z,693
2022-11-24T15:06:30.057Z,691
2022-11-24T15:12:00.555Z,683
2022-11-24T15:17:31.013Z,664
2022-11-24T15:23:00.500Z,663
2022-11-24T15:28:30.974Z,657
2022-11-24T15:34:01.460Z,655
2022-11-24T15:39:30.925Z,652
2022-11-24T15:45:01.426Z,653
2022-11-24T15:50:31.897Z,639
2022-11-24T15:56:01.367Z,633
2022-11-24T16:01:32.128Z,634
2022-11-24T16:07:01.338Z,631
2022-11-24T16:12:31.820Z,629
2022-11-24T16:18:02.339Z,630
2022-11-24T16:23:32.882Z,627
2022-11-24T16:29:03.447Z,629
2022-11-24T16:34:34.380Z,630
2022-11-24T16:40:03.422Z,638
2022-11-24T16:45:34.035Z,647
2022-11-24T16:51:04.549Z,636
2022-11-24T16:56:35.002Z,634
2022-11-24T17:02:05.563Z,636
2022-11-24T17:07:36.181Z,636
2022-11-24T17:13:06.643Z,621
2022-11-24T17:18:37.091Z,616
2022-11-24T17:24:07.717Z,613
2022-11-24T17:29:38.177Z,618
2022-11-24T17:35:08.660Z,630
2022-11-24T17:40:39.267Z,632
2022-11-24T17:46:09.789Z,640
2022-11-24T17:51:40.299Z,647
2022-11-24T17:57:10.820Z,652
2022-11-24T18:02:41.358Z,678
2022-11-24T18:08:12.053Z,697
2022-11-24T18:13:58.428Z,712
2022-11-24T18:19:12.957Z,719
2022-11-24T18:24:43.567Z,737
2022-11-24T18:30:14.058Z,744
2022-11-24T18:35:43.521Z,750
2022-11-24T18:41:14.050Z,754
2022-11-24T18:46:44.593Z,744
2022-11-24T18:52:15.180Z,738
2022-11-24T18:57:45.656Z,743
2022-11-24T19:03:15.170Z,752
2022-11-24T19:08:45.648Z,770
2022-11-24T19:14:16.133Z,798
2022-11-24T19:19:46.732Z,809
2022-11-24T19:25:17.195Z,827
2022-11-24T19:30:47.785Z,831
2022-11-24T19:36:17.279Z,842
2022-11-24T19:41:47.732Z,854
2022-11-24T19:47:18.220Z,867
2022-11-24T19:52:47.747Z,877
2022-11-24T19:58:18.191Z,875
2022-11-24T20:03:48.685Z,867
2022-11-24T20:09:18.224Z,927
2022-11-24T20:14:48.788Z,1027
2022-11-24T20:20:19.375Z,1044
2022-11-24T20:25:49.874Z,1069
2022-11-24T20:31:20.375Z,1106
2022-11-24T20:36:49.834Z,1132
2022-11-24T20:42:20.323Z,1149
2022-11-24T20:47:50.772Z,1181
2022-11-24T20:53:21.362Z,1210
2022-11-24T20:58:51.968Z,1237
2022-11-24T21:04:22.404Z,1243
2022-11-24T21:09:53.025Z,1273
2022-11-24T21:15:23.527Z,1304
2022-11-24T21:20:53.968Z,1323
2022-11-24T21:26:24.576Z,1354
2022-11-24T21:31:55.152Z,1364
2022-11-24T21:37:24.545Z,1355
2022-11-24T21:42:55.029Z,1394
2022-11-24T21:48:25.538Z,1462
2022-11-24T21:53:56.136Z,1477
2022-11-24T21:59:26.567Z,1509
2022-11-24T22:04:57.071Z,1500
2022-11-24T22:10:26.659Z,1516
2022-11-24T22:15:57.159Z,1525
2022-11-24T22:21:26.651Z,1512
2022-11-24T22:26:57.093Z,1509
2022-11-24T22:32:26.585Z,1561
2022-11-24T22:37:57.110Z,1551
2022-11-24T22:43:27.565Z,1526
2022-11-24T22:48:57.041Z,1525
2022-11-24T22:54:27.544Z,1544
2022-11-24T22:59:57.004Z,1600
2022-11-24T23:05:27.475Z,1605
2022-11-24T23:10:58.000Z,1605
2022-11-24T23:16:28.570Z,1595
2022-11-24T23:21:59.034Z,1602
2022-11-24T23:27:29.519Z,1607
2022-11-24T23:33:00.114Z,1615
2022-11-24T23:38:30.573Z,1616
2022-11-24T23:44:01.055Z,1666
2022-11-24T23:49:30.522Z,1681
2022-11-24T23:55:01.029Z,1694
